createdAt,value
2022-08-04T00:01:28.672Z,3.50
2022-08-04T00:04:04.187Z,3.70
2022-08-04T00:06:56.353Z,3.70
2022-08-04T00:09:39.929Z,3.30
2022-08-04T00:12:12.274Z,3.50
2022-08-04T00:14:50.708Z,3.30
2022-08-04T00:17:21.775Z,3.20
2022-08-04T00:19:56.531Z,3.20
2022-08-04T00:22:30.161Z,3.20
2022-08-04T00:25:03.126Z,3.10
2022-08-04T00:27:32.458Z,2.90
2022-08-04T00:30:06.824Z,3.20
2022-08-04T00:32:35.334Z,3.20
2022-08-04T00:35:03.870Z,3.50
2022-08-04T00:37:34.155Z,3.50
2022-08-04T00:40:09.819Z,2.80
2022-08-04T00:42:59.255Z,3.30
2022-08-04T00:46:20.630Z,3.50
2022-08-04T00:49:17.629Z,3.00
2022-08-04T00:52:32.013Z,3.40
2022-08-04T00:55:19.067Z,3.50
2022-08-04T00:58:14.366Z,3.60
2022-08-04T01:01:04.280Z,3.60
2022-08-04T01:03:58.989Z,3.20
2022-08-04T01:06:36.353Z,3.60
2022-08-04T01:09:32.224Z,3.40
2022-08-04T01:12:10.422Z,3.70
2022-08-04T01:15:07.797Z,3.50
2022-08-04T01:17:35.756Z,3.30
2022-08-04T01:20:09.394Z,3.70
2022-08-04T01:22:40.381Z,3.50
2022-08-04T01:25:39.915Z,3.10
2022-08-04T01:28:22.227Z,2.80
2022-08-04T01:31:06.776Z,3.30
2022-08-04T01:34:03.329Z,2.90
2022-08-04T01:36:30.653Z,3.30
2022-08-04T01:38:59.190Z,3.20
2022-08-04T01:41:32.633Z,3.10
2022-08-04T01:44:03.082Z,3.40
2022-08-04T01:46:34.526Z,3.10
2022-08-04T01:49:03.200Z,3.00
2022-08-04T01:51:36.304Z,3.30
2022-08-04T01:54:04.486Z,3.30
2022-08-04T01:56:32.661Z,3.60
2022-08-04T01:59:03.469Z,3.50
2022-08-04T02:01:36.567Z,3.30
2022-08-04T02:04:22.257Z,3.40
2022-08-04T02:07:40.803Z,3.60
2022-08-04T02:10:15.399Z,3.60
2022-08-04T02:12:56.192Z,3.40
2022-08-04T02:15:30.950Z,3.60
2022-08-04T02:18:26.609Z,3.60
2022-08-04T02:21:04.382Z,3.90
2022-08-04T02:23:36.985Z,3.40
2022-08-04T02:26:26.427Z,3.30
2022-08-04T02:29:27.295Z,3.20
2022-08-04T02:32:11.672Z,3.10
2022-08-04T02:34:47.883Z,3.40
2022-08-04T02:37:21.014Z,3.20
2022-08-04T02:39:53.851Z,3.50
2022-08-04T02:42:22.945Z,3.50
2022-08-04T02:44:52.388Z,4.10
2022-08-04T02:47:22.152Z,3.20
2022-08-04T02:49:52.686Z,3.60
2022-08-04T02:52:21.782Z,3.40
2022-08-04T02:54:54.219Z,3.60
2022-08-04T02:57:26.901Z,3.70
2022-08-04T03:00:14.669Z,3.60
2022-08-04T03:02:54.601Z,3.50
2022-08-04T03:05:57.668Z,3.60
2022-08-04T03:08:25.028Z,3.70
2022-08-04T03:11:17.718Z,3.70
2022-08-04T03:14:00.978Z,3.40
2022-08-04T03:17:08.091Z,3.50
2022-08-04T03:20:00.870Z,3.10
2022-08-04T03:23:12.169Z,3.30
2022-08-04T03:26:06.572Z,3.10
2022-08-04T03:28:46.506Z,3.20
2022-08-04T03:31:47.807Z,3.50
2022-08-04T03:34:55.116Z,3.50
2022-08-04T03:37:32.004Z,3.80
2022-08-04T03:40:24.511Z,3.40
2022-08-04T03:43:58.879Z,3.80
2022-08-04T03:46:19.155Z,3.60
2022-08-04T03:49:24.482Z,3.70
2022-08-04T03:52:40.317Z,3.50
2022-08-04T03:55:23.618Z,3.80
2022-08-04T03:58:18.347Z,3.80
2022-08-04T04:01:01.004Z,3.80
2022-08-04T04:03:57.723Z,3.10
2022-08-04T04:06:44.857Z,3.10
2022-08-04T04:09:22.041Z,3.70
2022-08-04T04:12:22.413Z,2.90
2022-08-04T04:14:59.608Z,3.40
2022-08-04T04:17:41.130Z,3.80
2022-08-04T04:20:18.140Z,3.80
2022-08-04T04:23:25.036Z,3.50
2022-08-04T04:26:12.724Z,3.90
2022-08-04T04:28:53.730Z,4.50
2022-08-04T04:31:27.273Z,6.60
2022-08-04T04:34:24.556Z,6.50
2022-08-04T04:37:07.721Z,5.20
2022-08-04T04:39:49.605Z,5.90
2022-08-04T04:42:29.550Z,4.90
2022-08-04T04:45:41.101Z,4.80
2022-08-04T04:48:41.856Z,4.60
2022-08-04T04:51:48.149Z,3.70
2022-08-04T04:54:22.010Z,3.80
2022-08-04T04:57:02.340Z,3.70
2022-08-04T04:59:36.990Z,3.50
2022-08-04T05:02:25.399Z,3.40
2022-08-04T05:05:15.029Z,3.60
2022-08-04T05:07:57.749Z,4.00
2022-08-04T05:11:04.799Z,3.60
2022-08-04T05:14:37.544Z,3.60
2022-08-04T05:16:37.751Z,3.90
2022-08-04T05:19:21.028Z,3.40
2022-08-04T05:21:57.353Z,3.90
2022-08-04T05:24:28.462Z,3.50
2022-08-04T05:27:12.216Z,3.50
2022-08-04T05:29:57.640Z,3.80
2022-08-04T05:32:32.939Z,3.90
2022-08-04T05:35:07.579Z,3.60
2022-08-04T05:37:39.903Z,3.50
2022-08-04T05:40:10.958Z,3.80
2022-08-04T05:42:41.484Z,4.00
2022-08-04T05:45:10.627Z,4.20
2022-08-04T05:47:39.469Z,4.20
2022-08-04T05:50:08.837Z,3.90
2022-08-04T05:52:38.064Z,4.00
2022-08-04T05:55:08.458Z,4.70
2022-08-04T05:57:39.231Z,5.60
2022-08-04T06:00:31.819Z,6.50
2022-08-04T06:02:59.228Z,5.90
2022-08-04T06:05:28.587Z,4.70
2022-08-04T06:08:12.198Z,4.20
2022-08-04T06:13:47.643Z,4.30
2022-08-04T06:16:05.941Z,5.00
2022-08-04T06:20:02.029Z,4.90
2022-08-04T06:21:28.517Z,4.60
2022-08-04T06:24:03.938Z,4.30
2022-08-04T06:26:35.165Z,4.40
2022-08-04T06:29:05.330Z,4.10
2022-08-04T06:32:27.916Z,4.30
2022-08-04T06:34:35.876Z,3.80
2022-08-04T06:37:05.815Z,4.30
2022-08-04T06:39:35.802Z,3.80
2022-08-04T06:42:22.125Z,4.40
2022-08-04T06:44:57.996Z,4.90
2022-08-04T06:47:27.417Z,5.10
2022-08-04T06:51:31.860Z,5.40
2022-08-04T06:52:46.279Z,4.20
2022-08-04T06:55:14.388Z,4.10
2022-08-04T06:57:45.334Z,3.90
2022-08-04T07:00:16.783Z,4.00
2022-08-04T07:02:48.353Z,4.40
2022-08-04T07:05:18.341Z,4.20
2022-08-04T07:07:58.162Z,3.60
2022-08-04T07:10:31.004Z,3.80
2022-08-04T07:13:01.897Z,3.70
2022-08-04T07:15:31.539Z,4.10
2022-08-04T07:18:04.920Z,4.10
2022-08-04T07:20:36.571Z,3.70
2022-08-04T07:23:06.751Z,3.60
2022-08-04T07:26:12.189Z,3.60
2022-08-04T07:28:27.532Z,3.60
2022-08-04T07:30:57.665Z,4.50
2022-08-04T07:33:27.401Z,4.70
2022-08-04T07:36:09.651Z,3.30
2022-08-04T07:38:50.721Z,3.40
2022-08-04T07:41:39.368Z,3.10
2022-08-04T07:44:08.897Z,4.00
2022-08-04T07:46:37.889Z,3.40
2022-08-04T07:49:06.678Z,3.30
2022-08-04T07:51:37.021Z,3.10
2022-08-04T07:54:07.828Z,3.20
2022-08-04T07:56:38.153Z,3.20
2022-08-04T07:59:06.972Z,3.90
2022-08-04T08:01:37.399Z,2.40
2022-08-04T08:04:08.320Z,2.60
2022-08-04T08:06:43.143Z,2.60
2022-08-04T08:09:14.930Z,2.50
2022-08-04T08:12:35.251Z,2.50
2022-08-04T08:14:41.616Z,2.30
2022-08-04T08:17:09.956Z,2.10
2022-08-04T08:19:38.601Z,2.60
2022-08-04T08:22:07.148Z,2.40
2022-08-04T08:24:37.284Z,3.80
2022-08-04T08:27:07.470Z,2.70
2022-08-04T08:29:36.314Z,2.40
2022-08-04T08:32:08.531Z,2.70
2022-08-04T08:34:39.072Z,2.10
2022-08-04T08:37:45.485Z,2.00
2022-08-04T08:40:16.750Z,2.50
2022-08-04T08:44:00.214Z,2.30
2022-08-04T08:46:38.843Z,2.00
2022-08-04T08:50:02.514Z,3.10
2022-08-04T08:53:03.234Z,2.00
2022-08-04T08:55:52.501Z,2.10
2022-08-04T08:58:46.239Z,2.00
2022-08-04T09:01:44.552Z,1.90
2022-08-04T09:04:49.865Z,2.60
2022-08-04T09:07:43.209Z,2.50
2022-08-04T09:10:26.563Z,2.40
2022-08-04T09:13:10.806Z,2.10
2022-08-04T09:15:54.410Z,2.30
2022-08-04T09:18:34.501Z,2.00
2022-08-04T09:21:17.798Z,1.90
2022-08-04T09:23:45.952Z,2.50
2022-08-04T09:26:36.618Z,2.30
2022-08-04T09:29:30.843Z,2.10
2022-08-04T09:32:22.447Z,2.20
2022-08-04T09:35:19.416Z,2.70
2022-08-04T09:38:06.105Z,2.40
2022-08-04T09:41:30.026Z,2.00
2022-08-04T09:44:52.905Z,1.90
2022-08-04T09:47:43.128Z,1.90
2022-08-04T09:50:37.649Z,2.40
2022-08-04T09:53:34.739Z,2.20
2022-08-04T09:56:03.463Z,2.00
2022-08-04T09:58:46.620Z,2.20
2022-08-04T10:01:24.866Z,2.00
2022-08-04T10:03:59.298Z,2.40
2022-08-04T10:06:47.900Z,2.50
2022-08-04T10:09:34.753Z,2.70
2022-08-04T10:12:18.082Z,2.30
2022-08-04T10:15:21.118Z,2.70
2022-08-04T10:18:23.188Z,2.20
2022-08-04T10:21:29.458Z,2.20
2022-08-04T10:24:23.220Z,2.40
2022-08-04T10:26:58.499Z,2.40
2022-08-04T10:29:46.822Z,2.60
2022-08-04T10:32:25.828Z,2.60
2022-08-04T10:35:15.971Z,2.40
2022-08-04T10:38:02.776Z,2.60
2022-08-04T10:40:45.721Z,3.40
2022-08-04T10:43:22.833Z,2.90
2022-08-04T10:46:08.021Z,3.50
2022-08-04T10:49:00.154Z,3.00
2022-08-04T10:51:57.733Z,3.20
2022-08-04T10:54:51.693Z,3.50
2022-08-04T10:57:37.235Z,3.00
2022-08-04T11:00:12.056Z,3.00
2022-08-04T11:05:22.829Z,3.70
2022-08-04T11:07:57.279Z,3.20
2022-08-04T11:10:30.643Z,3.50
2022-08-04T11:13:05.144Z,4.00
2022-08-04T11:15:46.771Z,2.90
2022-08-04T11:18:29.551Z,3.10
2022-08-04T11:21:22.084Z,3.30
2022-08-04T11:24:03.757Z,2.80
2022-08-04T11:26:43.658Z,3.10
2022-08-04T11:29:30.983Z,3.50
2022-08-04T11:32:02.714Z,2.50
2022-08-04T11:34:31.184Z,2.50
2022-08-04T11:37:22.164Z,2.90
2022-08-04T11:40:09.777Z,2.90
2022-08-04T11:42:52.296Z,2.60
2022-08-04T11:45:37.573Z,2.70
2022-08-04T11:48:20.439Z,3.10
2022-08-04T11:50:55.399Z,3.40
2022-08-04T11:53:26.149Z,3.20
2022-08-04T11:56:09.129Z,3.60
2022-08-04T11:58:38.734Z,2.90
2022-08-04T12:01:27.848Z,2.40
2022-08-04T12:04:14.232Z,3.10
2022-08-04T12:06:56.797Z,2.80
2022-08-04T12:10:06.825Z,3.00
2022-08-04T12:12:46.129Z,2.90
2022-08-04T12:15:26.732Z,2.50
2022-08-04T12:18:00.320Z,2.60
2022-08-04T12:20:41.058Z,2.70
2022-08-04T12:23:22.998Z,2.60
2022-08-04T12:25:56.076Z,2.60
2022-08-04T12:28:59.543Z,2.90
2022-08-04T12:32:01.072Z,2.60
2022-08-04T12:34:41.120Z,2.30
2022-08-04T12:37:53.658Z,3.50
2022-08-04T12:40:30.600Z,2.30
2022-08-04T12:45:58.361Z,1.90
2022-08-04T12:48:28.660Z,2.10
2022-08-04T12:50:58.977Z,2.10
2022-08-04T12:53:51.093Z,2.40
2022-08-04T12:56:28.492Z,2.30
2022-08-04T12:59:12.823Z,2.30
2022-08-04T13:02:08.820Z,2.80
2022-08-04T13:04:42.748Z,2.60
2022-08-04T13:07:24.029Z,2.10
2022-08-04T13:09:53.533Z,2.40
2022-08-04T13:12:32.839Z,2.50
2022-08-04T13:15:18.213Z,2.50
2022-08-04T13:18:03.260Z,2.40
2022-08-04T13:20:37.026Z,2.20
2022-08-04T13:23:09.781Z,2.80
2022-08-04T13:26:44.452Z,2.40
2022-08-04T13:28:34.839Z,2.60
2022-08-04T13:31:07.803Z,2.70
2022-08-04T13:33:39.443Z,2.40
2022-08-04T13:36:09.028Z,2.40
2022-08-04T13:38:40.905Z,2.20
2022-08-04T13:41:09.531Z,2.20
2022-08-04T13:44:15.769Z,2.30
2022-08-04T13:46:37.061Z,2.30
2022-08-04T13:49:28.294Z,2.30
2022-08-04T13:52:04.753Z,2.10
2022-08-04T13:54:43.730Z,2.50
2022-08-04T13:57:23.659Z,2.40
2022-08-04T13:59:54.781Z,2.20
2022-08-04T14:02:45.254Z,2.70
2022-08-04T14:05:28.572Z,2.90
2022-08-04T14:10:36.238Z,2.60
2022-08-04T14:13:06.798Z,2.50
2022-08-04T14:16:02.873Z,2.30
2022-08-04T14:18:32.743Z,2.10
2022-08-04T14:21:08.518Z,2.20
2022-08-04T14:24:02.961Z,2.00
2022-08-04T14:26:35.732Z,2.20
2022-08-04T14:29:28.733Z,2.10
2022-08-04T14:32:11.471Z,2.40
2022-08-04T14:34:44.907Z,1.90
2022-08-04T14:37:19.302Z,2.30
2022-08-04T14:40:18.137Z,2.20
2022-08-04T14:42:54.533Z,2.60
2022-08-04T14:45:34.965Z,2.30
2022-08-04T14:48:07.621Z,2.30
2022-08-04T14:50:37.917Z,2.40
2022-08-04T14:53:12.219Z,2.10
2022-08-04T14:55:44.685Z,2.30
2022-08-04T14:58:35.690Z,2.10
2022-08-04T15:01:11.810Z,2.70
2022-08-04T15:03:49.956Z,2.00
2022-08-04T15:06:27.859Z,2.20
2022-08-04T15:08:58.575Z,2.00
2022-08-04T15:11:27.841Z,1.90
2022-08-04T15:13:57.867Z,2.20
2022-08-04T15:16:28.746Z,1.80
2022-08-04T15:18:57.502Z,2.00
2022-08-04T15:21:29.107Z,2.40
2022-08-04T15:23:58.813Z,2.80
2022-08-04T15:26:41.863Z,3.00
2022-08-04T15:29:16.988Z,3.00
2022-08-04T15:32:07.568Z,3.00
2022-08-04T15:34:51.890Z,2.20
2022-08-04T15:37:31.476Z,2.40
2022-08-04T15:40:33.216Z,2.20
2022-08-04T15:43:31.204Z,2.20
2022-08-04T15:46:41.813Z,1.80
2022-08-04T15:48:52.173Z,2.00
2022-08-04T15:51:32.825Z,2.00
2022-08-04T15:54:27.450Z,1.80
2022-08-04T15:57:01.329Z,2.10
2022-08-04T16:00:21.149Z,2.20
2022-08-04T16:02:49.517Z,1.60
2022-08-04T16:05:18.509Z,2.20
2022-08-04T16:07:56.901Z,1.80
2022-08-04T16:10:30.899Z,1.80
2022-08-04T16:13:14.055Z,1.70
2022-08-04T16:15:48.083Z,2.10
2022-08-04T16:18:26.123Z,2.00
2022-08-04T16:20:57.405Z,2.10
2022-08-04T16:23:58.093Z,2.00
2022-08-04T16:26:42.257Z,2.10
2022-08-04T16:29:23.071Z,1.70
2022-08-04T16:32:07.441Z,2.00
2022-08-04T16:34:54.178Z,2.00
2022-08-04T16:37:38.496Z,2.00
2022-08-04T16:40:36.465Z,1.90
2022-08-04T16:43:09.661Z,1.80
2022-08-04T16:46:02.749Z,2.00
2022-08-04T16:48:32.998Z,2.00
2022-08-04T16:51:06.942Z,1.90
2022-08-04T16:53:53.107Z,2.00
2022-08-04T16:56:33.752Z,2.10
2022-08-04T16:59:08.178Z,1.90
2022-08-04T17:01:37.657Z,2.00
2022-08-04T17:04:06.803Z,2.20
2022-08-04T17:06:40.998Z,2.00
2022-08-04T17:09:14.532Z,1.80
2022-08-04T17:11:44.459Z,2.10
2022-08-04T17:14:12.485Z,2.20
2022-08-04T17:16:43.721Z,1.80
2022-08-04T17:19:19.956Z,2.00
2022-08-04T17:22:07.504Z,2.00
2022-08-04T17:24:43.393Z,1.80
2022-08-04T17:28:09.752Z,1.80
2022-08-04T17:29:59.862Z,1.80
2022-08-04T17:32:28.132Z,2.10
2022-08-04T17:35:00.486Z,2.00
2022-08-04T17:37:40.523Z,2.10
2022-08-04T17:40:22.436Z,2.90
2022-08-04T17:44:02.949Z,2.60
2022-08-04T17:46:28.178Z,2.50
2022-08-04T17:49:17.985Z,2.40
2022-08-04T17:52:06.856Z,2.70
2022-08-04T17:54:41.154Z,2.60
2022-08-04T17:57:15.665Z,3.00
2022-08-04T17:59:57.734Z,2.60
2022-08-04T18:02:32.872Z,2.40
2022-08-04T18:05:06.339Z,2.60
2022-08-04T18:08:37.599Z,2.90
2022-08-04T18:10:52.482Z,2.80
2022-08-04T18:13:29.166Z,3.00
2022-08-04T18:16:04.964Z,2.60
2022-08-04T18:18:33.212Z,3.20
2022-08-04T18:21:03.487Z,3.00
2022-08-04T18:23:33.570Z,2.80
2022-08-04T18:26:03.887Z,3.80
2022-08-04T18:28:33.488Z,2.80
2022-08-04T18:31:02.407Z,2.80
2022-08-04T18:33:37.494Z,3.10
2022-08-04T18:36:32.978Z,2.70
2022-08-04T18:39:13.601Z,2.80
2022-08-04T18:42:01.444Z,2.80
2022-08-04T18:44:51.776Z,2.40
2022-08-04T18:47:23.744Z,2.30
2022-08-04T18:51:00.119Z,2.90
2022-08-04T18:52:45.031Z,3.70
2022-08-04T18:55:55.579Z,3.30
2022-08-04T18:58:07.394Z,3.30
2022-08-04T19:00:45.166Z,3.50
2022-08-04T19:06:03.196Z,3.90
2022-08-04T19:08:34.523Z,3.60
2022-08-04T19:11:38.688Z,3.60
2022-08-04T19:13:54.775Z,3.90
2022-08-04T19:16:28.725Z,4.20
2022-08-04T19:18:58.283Z,4.30
2022-08-04T19:21:59.524Z,4.10
2022-08-04T19:24:32.213Z,4.20
2022-08-04T19:27:08.334Z,3.90
2022-08-04T19:29:41.469Z,3.80
2022-08-04T19:32:16.205Z,4.40
2022-08-04T19:34:47.290Z,4.30
2022-08-04T19:37:57.560Z,6.00
2022-08-04T19:40:08.161Z,7.90
2022-08-04T19:42:38.189Z,8.70
2022-08-04T19:45:07.140Z,8.40
2022-08-04T19:48:16.953Z,8.80
2022-08-04T19:50:24.088Z,9.00
2022-08-04T19:52:53.147Z,8.90
2022-08-04T19:55:37.573Z,7.10
2022-08-04T19:58:08.507Z,5.40
2022-08-04T20:00:39.283Z,6.20
2022-08-04T20:03:11.231Z,7.10
2022-08-04T20:05:53.369Z,7.80
2022-08-04T20:08:27.962Z,7.20
2022-08-04T20:10:57.920Z,6.30
2022-08-04T20:13:37.311Z,6.10
2022-08-04T20:16:29.173Z,6.10
2022-08-04T20:19:02.394Z,5.90
2022-08-04T20:21:53.686Z,4.90
2022-08-04T20:24:37.742Z,4.90
2022-08-04T20:27:15.136Z,4.50
2022-08-04T20:29:48.278Z,4.70
2022-08-04T20:32:23.164Z,4.90
2022-08-04T20:34:52.888Z,5.20
2022-08-04T20:37:23.674Z,5.00
2022-08-04T20:40:01.420Z,5.10
2022-08-04T20:42:33.843Z,5.00
2022-08-04T20:45:03.259Z,5.00
2022-08-04T20:47:35.905Z,4.90
2022-08-04T20:50:29.887Z,4.70
2022-08-04T20:52:59.105Z,5.30
2022-08-04T20:55:29.506Z,5.10
2022-08-04T20:58:03.083Z,4.60
2022-08-04T21:00:32.443Z,5.10
2022-08-04T21:03:00.510Z,4.90
2022-08-04T21:05:29.174Z,4.80
2022-08-04T21:08:00.010Z,4.80
2022-08-04T21:10:28.401Z,4.90
2022-08-04T21:12:56.498Z,4.50
2022-08-04T21:15:26.417Z,4.50
2022-08-04T21:18:14.328Z,4.80
2022-08-04T21:20:45.048Z,5.50
2022-08-04T21:23:16.096Z,9.10
2022-08-04T21:25:49.848Z,11.90
2022-08-04T21:28:20.490Z,12.90
2022-08-04T21:30:54.021Z,11.60
2022-08-04T21:33:43.915Z,10.70
2022-08-04T21:36:14.059Z,9.70
2022-08-04T21:38:51.899Z,8.40
2022-08-04T21:41:25.063Z,6.60
2022-08-04T21:43:56.081Z,6.80
2022-08-04T21:46:24.482Z,5.50
2022-08-04T21:48:52.650Z,6.10
2022-08-04T21:51:59.196Z,5.60
2022-08-04T21:54:15.022Z,4.40
2022-08-04T21:56:51.419Z,4.80
2022-08-04T21:59:23.596Z,5.10
2022-08-04T22:01:56.789Z,5.00
2022-08-04T22:04:25.262Z,4.90
2022-08-04T22:06:53.427Z,5.30
2022-08-04T22:09:22.116Z,5.10
2022-08-04T22:11:51.762Z,5.10
2022-08-04T22:14:27.177Z,5.20
2022-08-04T22:16:58.717Z,5.00
2022-08-04T22:19:50.756Z,5.00
2022-08-04T22:22:25.684Z,5.50
2022-08-04T22:24:58.804Z,5.00
2022-08-04T22:27:47.539Z,5.40
2022-08-04T22:30:17.022Z,5.10
2022-08-04T22:32:47.179Z,4.80
2022-08-04T22:35:43.085Z,5.30
2022-08-04T22:38:24.545Z,5.20
2022-08-04T22:41:01.753Z,5.20
2022-08-04T22:43:31.695Z,5.50
2022-08-04T22:46:05.334Z,5.20
2022-08-04T22:48:37.577Z,5.00
2022-08-04T22:51:07.636Z,5.00
2022-08-04T22:53:36.395Z,5.30
2022-08-04T22:56:10.154Z,5.40
2022-08-04T22:58:45.292Z,5.20
2022-08-04T23:01:19.270Z,5.00
2022-08-04T23:03:55.253Z,5.20
2022-08-04T23:06:28.595Z,4.70
2022-08-04T23:08:57.996Z,4.60
2022-08-04T23:11:35.157Z,5.10
2022-08-04T23:14:05.315Z,5.30
2022-08-04T23:16:40.755Z,4.40
2022-08-04T23:19:15.243Z,4.90
2022-08-04T23:21:47.710Z,4.60
2022-08-04T23:24:30.046Z,4.60
2022-08-04T23:26:59.631Z,6.00
2022-08-04T23:29:28.309Z,4.60
2022-08-04T23:32:16.308Z,4.70
2022-08-04T23:34:48.421Z,5.10
2022-08-04T23:37:16.447Z,4.70
2022-08-04T23:40:15.463Z,5.20
2022-08-04T23:42:32.469Z,5.10
2022-08-04T23:45:00.528Z,4.80
2022-08-04T23:48:15.962Z,4.90
2022-08-04T23:50:16.560Z,4.50
2022-08-04T23:52:44.853Z,4.10
2022-08-04T23:55:19.018Z,4.40
2022-08-04T23:58:05.504Z,4.50
